Time;durP1;ratioP1;P1;durP2;ratioP2;P2;SDS_P1;SDS_P2;PMS_P1;PMS_P2;Temp;Humidity;BMP_temperature;BMP_pressure;BME280_temperature;BME280_humidity;BME280_pressure;Samples;Min_cycle;Max_cycle;Signal;HPM_P1;HPM_P2
2023/10/12 00:00:41;;;;;;;10.13;4.60;;;;;;;19.53;48.69;95657.03;4992357;28;20291;-80
2023/10/12 00:03:07;;;;;;;8.25;4.20;;;;;;;19.50;48.50;95652.16;4973723;28;20271;-80
2023/10/12 00:05:34;;;;;;;7.30;4.55;;;;;;;19.49;48.54;95659.25;4987230;28;20557;-80
2023/10/12 00:08:07;;;;;;;8.07;4.40;;;;;;;19.46;48.66;95653.56;4990291;28;20188;-79
2023/10/12 00:10:41;;;;;;;6.95;3.90;;;;;;;19.31;48.87;95652.94;4992151;28;20184;-81
2023/10/12 00:13:11;;;;;;;10.75;4.53;;;;;;;19.47;49.15;95644.66;4990907;28;20244;-80
2023/10/12 00:15:45;;;;;;;10.65;4.55;;;;;;;19.46;48.88;95646.50;4985632;28;20192;-81
2023/10/12 00:18:13;;;;;;;6.32;4.20;;;;;;;19.16;49.12;95650.44;4992941;28;20182;-80
2023/10/12 00:20:39;;;;;;;8.48;4.63;;;;;;;19.22;49.51;95639.94;4980894;28;20216;-81
2023/10/12 00:23:15;;;;;;;10.23;4.47;;;;;;;19.41;48.94;95654.16;4989496;28;20187;-81
2023/10/12 00:25:54;;;;;;;9.93;4.18;;;;;;;19.22;48.99;95645.22;4985325;28;20184;-79
2023/10/12 00:28:22;;;;;;;12.00;4.72;;;;;;;19.18;49.28;95643.19;4983090;28;20686;-80
2023/10/12 00:30:55;;;;;;;9.63;4.45;;;;;;;19.29;48.90;95644.44;4980618;28;20194;-81
2023/10/12 00:33:21;;;;;;;10.10;5.10;;;;;;;19.37;48.68;95637.16;4980281;28;20771;-81
2023/10/12 00:35:51;;;;;;;9.40;4.22;;;;;;;19.23;48.84;95631.03;4990150;28;21133;-80
2023/10/12 00:38:28;;;;;;;8.73;4.32;;;;;;;19.29;48.54;95634.69;4981130;28;20230;-81
2023/10/12 00:41:07;;;;;;;10.35;4.43;;;;;;;19.35;48.59;95625.22;4982123;28;20211;-81
2023/10/12 00:43:36;;;;;;;7.47;4.20;;;;;;;19.28;48.73;95627.00;4994467;28;20179;-82
2023/10/12 00:48:55;;;;;;;7.72;3.92;;;;;;;19.10;48.78;95622.31;4995796;28;20203;-80
2023/10/12 00:51:20;;;;;;;8.27;4.45;;;;;;;19.13;48.62;95627.97;4982513;28;20189;-79
2023/10/12 00:53:55;;;;;;;7.47;3.97;;;;;;;19.11;48.59;95619.47;4991179;28;20216;-80
2023/10/12 00:56:28;;;;;;;6.85;4.53;;;;;;;19.24;48.44;95616.84;4985202;28;20211;-79
2023/10/12 00:58:55;;;;;;;7.72;4.60;;;;;;;19.18;48.33;95616.88;4983679;28;20274;-80
2023/10/12 01:01:22;;;;;;;13.55;4.65;;;;;;;19.12;48.28;95618.47;4974832;28;20560;-81
2023/10/12 01:03:49;;;;;;;7.65;4.40;;;;;;;19.22;48.50;95618.88;4989238;28;20611;-80
2023/10/12 01:06:28;;;;;;;11.35;4.90;;;;;;;19.08;48.88;95617.25;4985910;28;20211;-80
2023/10/12 01:08:59;;;;;;;6.13;4.55;;;;;;;19.01;48.91;95620.88;4994237;28;20559;-80
2023/10/12 01:11:34;;;;;;;11.15;4.65;;;;;;;19.03;48.66;95627.53;4984470;28;20184;-80
2023/10/12 01:16:55;;;;;;;8.18;4.25;;;;;;;18.89;49.15;95626.69;4983304;28;20208;-81
2023/10/12 01:19:21;;;;;;;7.60;4.20;;;;;;;18.90;49.35;95620.41;4986078;28;20184;-80
2023/10/12 01:21:48;;;;;;;12.82;4.85;;;;;;;18.87;49.63;95610.28;4994828;28;20220;-81
2023/10/12 01:24:13;;;;;;;10.68;4.32;;;;;;;18.77;49.39;95609.84;5000374;28;20211;-80
2023/10/12 01:26:48;;;;;;;12.00;4.70;;;;;;;18.76;49.67;95612.69;4989077;28;20208;-81
2023/10/12 01:29:20;;;;;;;10.18;4.53;;;;;;;18.77;49.77;95604.59;5000095;28;20191;-80
2023/10/12 01:34:37;;;;;;;7.72;4.65;;;;;;;18.65;49.90;95601.72;4991468;28;20214;-80
2023/10/12 01:37:48;;;;;;;8.73;4.25;;;;;;;18.71;49.63;95594.84;4995589;28;20359;-80
2023/10/12 01:43:02;;;;;;;8.57;4.45;;;;;;;18.68;49.79;95611.03;4989947;28;20712;-80
2023/10/12 01:48:06;;;;;;;6.80;4.30;;;;;;;18.47;49.98;95606.66;4991092;28;20267;-80
2023/10/12 01:50:37;;;;;;;7.72;4.00;;;;;;;18.53;49.94;95594.53;4981556;28;20662;-80
2023/10/12 01:53:22;;;;;;;9.48;4.60;;;;;;;18.61;49.98;95599.63;4977178;28;20231;-81
2023/10/12 01:55:52;;;;;;;9.38;4.57;;;;;;;18.62;49.71;95601.25;4981168;28;20697;-81
2023/10/12 01:58:19;;;;;;;7.28;4.45;;;;;;;18.56;50.05;95600.22;4988772;28;20192;-80
2023/10/12 02:00:51;;;;;;;9.50;4.30;;;;;;;18.54;50.06;95596.97;4985793;28;20226;-80
2023/10/12 02:03:31;;;;;;;7.97;4.95;;;;;;;18.32;50.61;95601.53;4987996;28;20235;-79
2023/10/12 02:06:05;;;;;;;6.53;4.28;;;;;;;18.50;50.06;95600.19;4981809;28;20295;-81
2023/10/12 02:08:32;;;;;;;7.53;3.97;;;;;;;18.56;50.39;95597.59;4991777;28;20180;-82
2023/10/12 02:11:11;;;;;;;7.70;4.60;;;;;;;18.44;50.90;95606.22;4989307;28;20184;-80
2023/10/12 02:13:38;;;;;;;9.82;4.72;;;;;;;18.47;50.79;95611.94;4980270;28;20275;-81
2023/10/12 02:16:06;;;;;;;10.13;5.25;;;;;;;18.47;50.69;95604.03;4987089;28;20643;-80
2023/10/12 02:18:33;;;;;;;6.93;4.30;;;;;;;18.38;50.56;95610.47;4991043;28;20199;-80
2023/10/12 02:21:06;;;;;;;14.68;4.80;;;;;;;18.35;50.96;95609.00;4992357;28;20654;-79
2023/10/12 02:23:38;;;;;;;10.02;4.72;;;;;;;18.52;50.56;95604.25;4989489;28;20808;-81
2023/10/12 02:26:28;;;;;;;9.80;5.18;;;;;;;18.49;50.48;95609.09;4980434;28;20200;-81
2023/10/12 02:28:53;;;;;;;5.93;4.40;;;;;;;18.47;50.39;95608.47;4986210;28;20199;-80
2023/10/12 02:31:28;;;;;;;9.75;4.00;;;;;;;18.33;51.08;95610.22;5027055;28;20188;-78
2023/10/12 02:33:53;;;;;;;6.85;4.57;;;;;;;18.47;50.85;95619.00;5000539;28;20220;-79
2023/10/12 02:36:19;;;;;;;7.07;4.78;;;;;;;18.50;50.67;95613.34;5028132;28;20242;-80
2023/10/12 02:38:44;;;;;;;11.48;4.60;;;;;;;18.29;51.18;95607.19;5012963;28;20179;-80
2023/10/12 02:41:13;;;;;;;8.43;4.28;;;;;;;18.42;51.16;95608.25;5001360;28;20267;-78
2023/10/12 02:43:50;;;;;;;8.82;4.45;;;;;;;18.48;50.63;95600.41;5016753;28;20179;-79
2023/10/12 02:46:22;;;;;;;10.50;4.80;;;;;;;18.44;50.79;95607.03;5018582;28;20238;-79
2023/10/12 02:48:50;;;;;;;7.90;4.25;;;;;;;18.44;50.94;95609.66;5014766;28;20198;-78
2023/10/12 02:51:17;;;;;;;8.75;4.57;;;;;;;18.21;51.73;95604.69;5015386;28;20219;-79
2023/10/12 02:53:44;;;;;;;6.88;5.05;;;;;;;18.25;51.78;95605.94;5012666;28;20192;-79
2023/10/12 02:56:09;;;;;;;8.32;4.82;;;;;;;18.42;51.19;95605.63;5007121;28;20196;-78
2023/10/12 02:58:35;;;;;;;7.75;4.20;;;;;;;18.52;51.02;95595.53;4999466;28;20179;-80
2023/10/12 03:01:12;;;;;;;15.45;4.95;;;;;;;18.45;50.83;95605.22;4995673;28;20215;-80
2023/10/12 03:03:39;;;;;;;9.38;4.35;;;;;;;18.49;50.76;95607.28;4969792;28;20196;-80
2023/10/12 03:06:08;;;;;;;10.93;4.65;;;;;;;18.55;50.96;95601.25;4991680;28;20207;-80
2023/10/12 03:08:46;;;;;;;7.88;4.32;;;;;;;18.49;50.96;95601.22;4978271;28;20688;-81
2023/10/12 03:11:12;;;;;;;8.70;4.10;;;;;;;18.33;51.36;95610.22;4978870;28;20669;-79
2023/10/12 03:13:41;;;;;;;10.07;4.82;;;;;;;18.57;50.83;95598.41;4983930;28;20185;-81
2023/10/12 03:16:13;;;;;;;6.65;4.63;;;;;;;18.38;51.11;95600.75;4990494;28;20211;-80
2023/10/12 03:18:40;;;;;;;9.13;4.40;;;;;;;18.51;50.93;95601.81;4983448;28;20203;-80
2023/10/12 03:21:11;;;;;;;10.23;4.18;;;;;;;18.54;50.93;95598.78;4987454;28;20200;-80
2023/10/12 03:23:40;;;;;;;9.82;4.60;;;;;;;18.53;50.86;95607.69;4983222;28;20266;-79
2023/10/12 03:26:24;;;;;;;12.10;5.05;;;;;;;18.63;50.66;95602.88;5012580;28;20203;-80
2023/10/12 03:28:54;;;;;;;6.90;4.32;;;;;;;18.55;51.04;95616.19;5001531;28;20203;-80
2023/10/12 03:31:23;;;;;;;7.88;4.55;;;;;;;18.48;51.12;95610.09;4989144;28;20175;-81
2023/10/12 03:33:54;;;;;;;8.20;5.10;;;;;;;18.58;50.72;95594.78;5008084;28;20180;-78
2023/10/12 03:36:23;;;;;;;8.25;4.70;;;;;;;18.57;51.03;95599.22;5007777;28;20457;-78
2023/10/12 03:47:04;;;;;;;8.60;4.60;;;;;;;18.65;50.71;95593.03;4994749;28;20215;-81
2023/10/12 03:51:59;;;;;;;8.27;5.05;;;;;;;18.67;50.88;95601.53;5012942;28;20175;-81
2023/10/12 03:54:32;;;;;;;7.93;4.10;;;;;;;18.68;50.49;95605.78;4997607;28;20184;-80
2023/10/12 03:57:19;;;;;;;7.40;4.70;;;;;;;18.53;50.94;95608.50;4989532;28;20203;-80
2023/10/12 03:59:59;;;;;;;6.53;4.85;;;;;;;18.56;51.11;95591.53;4978912;28;20184;-81
2023/10/12 04:02:25;;;;;;;10.15;4.75;;;;;;;18.49;50.92;95595.94;4990416;28;20204;-81
2023/10/12 04:25:48;;;;;;;9.13;4.50;;;;;;;18.37;51.75;95612.25;4952818;29;20201;-85
2023/10/12 04:28:23;;;;;;;8.60;4.35;;;;;;;18.47;51.76;95609.28;4956572;29;20666;-85
2023/10/12 04:31:31;;;;;;;;;;;;;;;;;;;;;
2023/10/12 04:38:18;;;;;;;;;;;;;;;;;;;;;
2023/10/12 05:00:47;;;;;;;9.45;4.75;;;;;;;18.98;50.64;95608.91;4774487;30;20210;-84
2023/10/12 05:03:35;;;;;;;11.07;4.78;;;;;;;18.95;50.99;95607.47;4798199;29;20203;-84
2023/10/12 05:06:08;;;;;;;12.30;5.40;;;;;;;19.13;50.30;95612.19;4787624;29;20635;-84
2023/10/12 05:08:35;;;;;;;11.45;4.60;;;;;;;19.14;50.52;95618.25;4790474;29;20318;-84
2023/10/12 05:11:02;;;;;;;7.45;4.70;;;;;;;19.14;50.31;95616.44;4794905;29;20194;-84
2023/10/12 05:13:28;;;;;;;9.30;4.95;;;;;;;19.08;50.80;95617.25;4809028;29;20428;-84
2023/10/12 05:15:56;;;;;;;10.73;4.63;;;;;;;19.13;50.72;95606.91;4830059;29;20223;-82
2023/10/12 05:18:25;;;;;;;7.00;4.25;;;;;;;19.15;50.45;95614.63;4835206;29;20215;-82
2023/10/12 05:20:52;;;;;;;9.02;4.70;;;;;;;19.22;50.10;95612.81;4835060;29;20707;-83
2023/10/12 05:23:17;;;;;;;7.15;4.32;;;;;;;19.32;50.33;95607.97;4835595;29;20637;-84
2023/10/12 05:28:27;;;;;;;12.13;5.10;;;;;;;19.24;49.99;95597.63;4927411;29;20252;-84
2023/10/12 05:30:59;;;;;;;11.07;4.60;;;;;;;19.31;50.00;95606.34;4931177;29;20220;-84
2023/10/12 05:36:11;;;;;;;9.27;4.72;;;;;;;19.40;49.64;95620.13;4988321;28;20297;-83
2023/10/12 05:38:48;;;;;;;9.52;4.35;;;;;;;19.25;50.07;95623.75;4979676;28;20199;-83
2023/10/12 05:41:13;;;;;;;7.82;4.90;;;;;;;19.36;49.67;95611.84;4996195;28;20286;-83
2023/10/12 05:43:40;;;;;;;9.98;5.10;;;;;;;19.45;49.60;95623.81;4972331;28;20199;-84
2023/10/12 05:46:15;;;;;;;6.60;4.32;;;;;;;19.39;49.43;95618.50;4978958;28;20207;-83
2023/10/12 05:48:45;;;;;;;10.90;5.15;;;;;;;19.44;49.48;95618.75;4974084;28;20191;-83
2023/10/12 05:51:15;;;;;;;9.88;4.55;;;;;;;19.40;49.52;95625.41;4994194;28;20191;-83
2023/10/12 05:53:40;;;;;;;11.95;4.85;;;;;;;19.46;49.35;95624.59;4978216;28;20254;-83
2023/10/12 05:56:06;;;;;;;6.70;4.28;;;;;;;19.52;48.85;95613.25;4993312;28;20266;-84
2023/10/12 05:58:34;;;;;;;10.43;4.93;;;;;;;19.49;49.37;95622.38;4978412;28;20188;-84
2023/10/12 06:01:08;;;;;;;9.82;5.00;;;;;;;19.39;49.51;95632.50;4992880;28;20606;-83
2023/10/12 06:03:34;;;;;;;9.63;4.72;;;;;;;19.51;49.38;95617.72;4976979;28;20196;-83
2023/10/12 06:05:59;;;;;;;10.05;4.57;;;;;;;19.60;48.94;95628.09;4994155;28;20204;-83
2023/10/12 06:08:25;;;;;;;7.32;5.07;;;;;;;19.56;48.80;95624.22;4987332;28;20249;-82
2023/10/12 06:10:50;;;;;;;11.02;4.70;;;;;;;19.70;48.76;95618.78;4980217;28;20271;-81
2023/10/12 06:13:16;;;;;;;8.30;4.68;;;;;;;19.60;48.93;95614.91;4988225;28;20212;-82
2023/10/12 06:15:49;;;;;;;7.53;4.38;;;;;;;19.85;48.27;95618.56;4979554;28;20270;-82
2023/10/12 06:18:21;;;;;;;10.13;4.28;;;;;;;19.80;48.53;95615.75;4979208;28;20334;-82
2023/10/12 06:20:58;;;;;;;9.82;5.03;;;;;;;19.94;47.96;95617.34;4988209;28;20207;-82
2023/10/12 06:23:23;;;;;;;7.53;4.97;;;;;;;20.02;47.89;95625.03;4977440;28;20195;-83
2023/10/12 06:25:48;;;;;;;6.32;4.30;;;;;;;19.94;47.58;95621.81;4976635;28;20199;-82
2023/10/12 06:28:16;;;;;;;8.18;4.78;;;;;;;20.02;48.01;95622.41;4979354;28;20192;-83
2023/10/12 06:30:45;;;;;;;7.55;5.00;;;;;;;20.09;47.67;95625.84;4978475;28;20243;-81
2023/10/12 06:33:15;;;;;;;8.43;4.70;;;;;;;20.02;47.48;95629.50;4985843;28;20172;-82
2023/10/12 06:35:58;;;;;;;8.77;4.97;;;;;;;20.06;47.53;95642.09;4978468;28;20219;-82
2023/10/12 06:38:36;;;;;;;7.43;4.28;;;;;;;20.08;47.40;95652.44;4976764;28;20367;-82
2023/10/12 06:41:27;;;;;;;10.15;4.40;;;;;;;20.09;47.29;95648.78;4990579;28;20204;-82
2023/10/12 06:46:15;;;;;;;7.38;4.38;;;;;;;20.20;47.02;95649.97;4987758;28;20211;-83
2023/10/12 06:48:44;;;;;;;6.82;4.25;;;;;;;20.15;47.23;95655.06;4977268;28;20194;-82
2023/10/12 06:51:16;;;;;;;8.18;4.63;;;;;;;20.25;47.30;95648.34;4993153;28;20266;-81
2023/10/12 06:53:45;;;;;;;11.20;4.57;;;;;;;20.33;47.01;95653.41;4988467;28;20194;-82
2023/10/12 06:58:46;;;;;;;9.70;4.70;;;;;;;20.46;46.35;95663.16;4986635;28;20188;-83
2023/10/12 07:01:27;;;;;;;6.82;4.60;;;;;;;20.36;46.98;95668.81;4980810;28;20228;-83
2023/10/12 07:03:53;;;;;;;8.68;3.97;;;;;;;20.51;46.44;95675.72;4979007;28;20191;-82
2023/10/12 07:06:19;;;;;;;7.82;4.50;;;;;;;20.44;46.50;95672.28;4983254;28;20208;-83
2023/10/12 07:08:46;;;;;;;6.63;4.22;;;;;;;20.41;46.29;95680.56;4985805;28;20247;-81
2023/10/12 07:11:13;;;;;;;9.13;4.72;;;;;;;20.54;46.09;95691.94;4975744;28;20202;-81
2023/10/12 07:13:41;;;;;;;6.22;4.47;;;;;;;20.51;46.17;95689.72;4987544;28;20190;-82
2023/10/12 07:16:16;;;;;;;7.57;4.60;;;;;;;20.41;46.10;95691.94;4994823;28;20208;-82
2023/10/12 07:18:45;;;;;;;8.88;4.50;;;;;;;20.61;45.68;95702.50;4986584;28;20544;-82
2023/10/12 07:21:20;;;;;;;6.97;4.28;;;;;;;20.50;45.96;95711.84;4989338;28;20299;-81
2023/10/12 07:23:52;;;;;;;8.13;4.45;;;;;;;20.62;45.52;95698.84;4977776;28;20246;-82
2023/10/12 07:26:23;;;;;;;14.55;4.85;;;;;;;20.55;45.65;95693.56;4982064;28;20212;-82
2023/10/12 07:28:49;;;;;;;9.85;4.80;;;;;;;20.78;45.60;95694.94;4979748;28;20858;-82
2023/10/12 07:36:35;;;;;;;8.10;4.07;;;;;;;20.95;44.78;95696.13;4989648;28;20316;-82
2023/10/12 07:39:15;;;;;;;9.25;4.25;;;;;;;20.87;45.01;95693.69;4977813;28;20219;-82
2023/10/12 07:41:41;;;;;;;7.30;4.60;;;;;;;20.80;44.98;95695.53;4986612;28;20704;-82
2023/10/12 07:44:07;;;;;;;6.75;4.47;;;;;;;20.96;44.39;95695.09;4978910;28;20180;-83
2023/10/12 07:46:35;;;;;;;313.45;27.65;;;;;;;21.07;44.57;95697.06;4979217;28;20612;-82
2023/10/12 07:49:22;;;;;;;17.08;4.93;;;;;;;21.24;44.05;95709.81;4977940;28;20195;-82
2023/10/12 07:52:09;;;;;;;9.82;4.53;;;;;;;21.29;43.97;95715.28;4979563;28;20538;-82
2023/10/12 07:57:14;;;;;;;8.00;4.85;;;;;;;21.43;43.89;95717.66;4990988;28;20231;-83
2023/10/12 07:59:48;;;;;;;9.15;4.93;;;;;;;21.33;44.29;95705.94;4987840;28;20195;-84
2023/10/12 08:02:15;;;;;;;9.25;4.32;;;;;;;21.42;44.08;95716.06;4981065;28;20207;-83
2023/10/12 08:04:58;;;;;;;9.23;4.85;;;;;;;21.39;43.61;95705.91;4974523;28;20192;-83
2023/10/12 08:07:26;;;;;;;8.10;5.03;;;;;;;21.34;43.99;95702.28;4975655;28;20693;-82
2023/10/12 08:09:54;;;;;;;7.70;4.30;;;;;;;21.43;43.78;95696.53;4977548;28;20203;-82
2023/10/12 08:12:26;;;;;;;14.18;4.65;;;;;;;21.62;43.66;95705.38;4973944;28;20178;-82
2023/10/12 08:14:54;;;;;;;9.45;4.63;;;;;;;21.64;43.62;95707.78;4975317;28;20183;-82
2023/10/12 08:17:33;;;;;;;9.27;5.03;;;;;;;21.70;43.59;95707.75;4985630;28;20195;-82
2023/10/12 08:22:46;;;;;;;8.68;4.28;;;;;;;21.60;43.88;95704.78;4987688;28;20215;-82
2023/10/12 08:25:11;;;;;;;6.25;5.00;;;;;;;21.67;43.60;95705.56;4989525;28;20183;-83
2023/10/12 08:27:52;;;;;;;13.68;4.28;;;;;;;21.70;43.63;95705.13;4971446;28;20294;-83
2023/10/12 08:30:23;;;;;;;7.70;4.30;;;;;;;21.74;43.54;95708.16;4986185;28;20188;-82
2023/10/12 08:32:59;;;;;;;7.25;4.43;;;;;;;21.69;43.72;95706.13;4981488;28;20204;-82
2023/10/12 08:36:23;;;;;;;8.27;3.97;;;;;;;21.76;43.40;95719.31;4987674;28;20180;-82
2023/10/12 08:38:33;;;;;;;8.35;5.13;;;;;;;21.84;43.33;95707.69;4986565;28;20199;-82
2023/10/12 08:43:45;;;;;;;9.52;4.88;;;;;;;21.92;43.21;95704.78;4988154;28;20180;-81
2023/10/12 08:46:12;;;;;;;8.77;4.60;;;;;;;21.87;43.27;95709.91;4991163;28;20728;-81
2023/10/12 08:48:52;;;;;;;8.50;4.53;;;;;;;22.05;43.17;95709.97;4966018;28;20176;-82
2023/10/12 08:51:19;;;;;;;10.68;4.65;;;;;;;21.99;43.33;95714.25;4976860;28;20551;-80
2023/10/12 08:53:49;;;;;;;8.93;4.57;;;;;;;22.02;43.33;95710.41;4971746;28;20190;-81
2023/10/12 09:01:23;;;;;;;8.55;4.60;;;;;;;22.21;42.90;95712.13;4931558;29;20226;-80
2023/10/12 09:03:53;;;;;;;7.60;4.60;;;;;;;21.92;43.52;95710.88;4918225;29;20186;-79
2023/10/12 09:06:53;;;;;;;11.20;5.25;;;;;;;22.21;43.20;95712.13;4915058;29;20277;-79
2023/10/12 09:09:48;;;;;;;9.77;4.85;;;;;;;22.48;42.74;95720.63;4937148;29;20189;-79
2023/10/12 09:12:01;;;;;;;6.18;4.47;;;;;;;22.36;42.93;95725.03;4937617;29;20192;-79
2023/10/12 09:14:26;;;;;;;11.32;4.57;;;;;;;22.39;42.88;95729.88;4933792;29;20281;-79
2023/10/12 09:16:53;;;;;;;9.52;4.82;;;;;;;22.40;43.14;95731.47;4903716;29;20209;-79
2023/10/12 09:19:28;;;;;;;9.00;4.72;;;;;;;;;;4918440;29;20189;-80
2023/10/12 09:21:59;;;;;;;10.20;5.38;;;;;;;22.41;43.14;95722.53;4937843;29;20205;-78
2023/10/12 09:24:28;;;;;;;8.98;5.18;;;;;;;22.26;43.24;95722.88;4909139;28;20190;-79
2023/10/12 09:27:00;;;;;;;12.70;4.80;;;;;;;22.51;42.81;95729.97;4922919;29;20240;-80
2023/10/12 09:29:29;;;;;;;9.75;4.78;;;;;;;22.61;42.75;95732.91;4924596;29;20663;-80
2023/10/12 09:35:03;;;;;;;9.18;4.60;;;;;;;22.74;42.62;95729.34;4921424;29;20201;-80
2023/10/12 09:37:33;;;;;;;56.92;7.32;;;;;;;22.97;42.47;95734.00;4919527;29;20788;-79
2023/10/12 09:39:59;;;;;;;13.82;5.20;;;;;;;23.14;42.12;95729.75;4920568;29;20197;-80
2023/10/12 09:42:28;;;;;;;8.25;4.88;;;;;;;22.91;42.27;95729.63;4919370;29;20198;-78
2023/10/12 09:45:01;;;;;;;8.35;5.10;;;;;;;23.00;41.60;95728.28;4935800;29;20283;-80
2023/10/12 09:47:43;;;;;;;9.50;4.97;;;;;;;23.22;41.53;95741.88;4906573;29;20210;-81
2023/10/12 09:50:13;;;;;;;11.98;4.60;;;;;;;22.92;42.37;95736.53;4935489;29;20182;-79
2023/10/12 09:52:46;;;;;;;9.20;4.93;;;;;;;22.84;41.96;95741.06;4911393;29;20190;-80
2023/10/12 09:55:23;;;;;;;10.73;4.78;;;;;;;22.91;42.16;95735.72;4915413;29;20827;-79
2023/10/12 09:57:52;;;;;;;8.32;4.75;;;;;;;23.03;41.25;95743.72;4932268;29;20210;-80
2023/10/12 10:00:28;;;;;;;11.23;5.90;;;;;;;22.99;42.07;95748.69;4933819;29;20202;-80
2023/10/12 10:02:59;;;;;;;10.43;5.13;;;;;;;22.90;41.50;95747.34;4924881;29;20257;-79
2023/10/12 10:05:39;;;;;;;11.52;4.55;;;;;;;23.05;40.98;95752.25;4932910;29;20222;-80
2023/10/12 10:08:06;;;;;;;10.73;4.63;;;;;;;23.06;40.51;95762.66;4930353;29;20201;-79
2023/10/12 10:10:32;;;;;;;10.32;4.60;;;;;;;22.94;41.48;95756.47;4926108;29;20233;-79
2023/10/12 10:13:10;;;;;;;10.60;5.05;;;;;;;23.48;40.50;95757.47;4913179;29;20477;-81
2023/10/12 10:15:56;;;;;;;6.22;4.30;;;;;;;23.53;40.76;95754.16;4940686;29;20213;-80
2023/10/12 10:18:28;;;;;;;11.18;4.90;;;;;;;23.58;40.60;95756.94;4934388;29;20655;-80
2023/10/12 10:20:56;;;;;;;8.82;4.68;;;;;;;23.39;40.60;95756.97;4939731;29;20212;-79
2023/10/12 10:23:22;;;;;;;9.65;4.60;;;;;;;23.86;40.02;95753.75;4937237;29;20202;-78
2023/10/12 10:26:13;;;;;;;7.75;4.35;;;;;;;23.85;40.42;95760.88;4926452;29;20244;-79
2023/10/12 10:28:45;;;;;;;13.18;4.90;;;;;;;24.12;40.02;95764.00;4914995;29;20182;-79
2023/10/12 10:31:26;;;;;;;8.85;4.82;;;;;;;24.01;40.29;95773.50;4903110;29;20200;-79
2023/10/12 10:33:57;;;;;;;9.60;4.80;;;;;;;24.22;39.18;95768.75;4935657;29;20190;-78
2023/10/12 10:36:26;;;;;;;12.40;5.07;;;;;;;24.12;38.81;95764.00;4936477;29;20241;-80
2023/10/12 10:41:22;;;;;;;9.20;4.95;;;;;;;24.09;38.72;95771.56;4932762;29;20627;-79
2023/10/12 10:43:51;;;;;;;9.10;4.15;;;;;;;24.23;38.61;95755.25;4927552;29;20202;-80
2023/10/12 10:46:17;;;;;;;10.52;5.03;;;;;;;24.22;38.03;95766.91;4919671;29;20675;-79
2023/10/12 10:48:49;;;;;;;8.27;5.25;;;;;;;24.35;38.67;95767.75;4906079;29;20218;-79
2023/10/12 10:51:18;;;;;;;8.60;4.65;;;;;;;24.20;38.17;95768.13;4902282;29;20231;-80
2023/10/12 10:53:51;;;;;;;6.50;4.50;;;;;;;24.34;37.42;95766.94;4926103;29;20206;-80
2023/10/12 10:56:16;;;;;;;6.50;4.45;;;;;;;23.90;38.47;95765.53;4905426;29;20210;-81
2023/10/12 10:58:41;;;;;;;9.25;4.47;;;;;;;24.49;37.81;95769.97;4918791;29;20286;-81
2023/10/12 11:01:14;;;;;;;10.45;4.40;;;;;;;24.30;38.43;95763.91;4902406;29;20214;-79
2023/10/12 11:03:40;;;;;;;5.35;4.13;;;;;;;24.44;38.00;95777.00;4930307;29;20226;-79
2023/10/12 11:06:23;;;;;;;8.85;3.80;;;;;;;24.27;38.04;95771.50;4896903;29;20213;-79
2023/10/12 11:09:13;;;;;;;10.20;4.72;;;;;;;24.20;37.76;95770.78;4914204;29;20410;-80
2023/10/12 11:11:37;;;;;;;7.63;5.07;;;;;;;24.01;38.04;95775.34;4930524;29;20226;-80
2023/10/12 11:14:08;;;;;;;6.50;4.68;;;;;;;23.97;38.06;95768.91;4917894;29;20567;-79
2023/10/12 11:16:34;;;;;;;8.10;4.63;;;;;;;24.11;37.92;95765.00;4909322;29;20594;-78
2023/10/12 11:19:01;;;;;;;8.38;4.60;;;;;;;24.30;37.22;95766.56;4926970;29;20186;-79
2023/10/12 11:21:26;;;;;;;9.50;4.28;;;;;;;24.33;37.20;95762.66;4920089;29;20698;-78
2023/10/12 11:24:03;;;;;;;8.00;4.22;;;;;;;24.36;37.26;95764.84;4935791;29;20193;-79
2023/10/12 11:26:39;;;;;;;13.25;5.10;;;;;;;24.66;36.75;95769.28;4930039;29;20229;-80
2023/10/12 11:29:10;;;;;;;8.75;4.78;;;;;;;24.70;36.48;95770.44;4914438;29;20667;-79
2023/10/12 11:31:37;;;;;;;10.65;4.55;;;;;;;25.00;36.02;95765.84;4923406;29;20217;-79
2023/10/12 11:34:11;;;;;;;9.68;4.45;;;;;;;24.99;35.96;95763.38;4914459;29;20253;-79
2023/10/12 11:36:37;;;;;;;6.60;3.85;;;;;;;25.19;36.04;95773.69;4913822;29;20586;-81
2023/10/12 11:39:21;;;;;;;7.20;4.55;;;;;;;24.92;36.80;95765.38;4932702;29;20197;-80
2023/10/12 11:42:06;;;;;;;10.75;4.55;;;;;;;25.20;36.27;95775.31;4921041;29;20217;-81
2023/10/12 11:44:36;;;;;;;13.85;4.82;;;;;;;25.23;36.02;95764.19;4913560;29;20315;-79
2023/10/12 11:47:06;;;;;;;8.52;4.43;;;;;;;25.23;36.05;95754.38;4903627;29;20210;-79
2023/10/12 11:49:49;;;;;;;11.38;4.82;;;;;;;25.20;36.15;95762.81;4917078;29;20191;-79
2023/10/12 11:52:21;;;;;;;8.98;4.95;;;;;;;25.09;35.94;95753.00;4910196;29;20255;-79
2023/10/12 11:54:48;;;;;;;9.50;4.25;;;;;;;25.35;35.36;95754.34;4922571;29;20259;-80
2023/10/12 11:57:13;;;;;;;8.85;4.28;;;;;;;25.22;35.71;95758.06;4899738;29;20214;-79
2023/10/12 11:59:39;;;;;;;11.93;5.13;;;;;;;25.33;35.61;95754.56;4915790;29;20734;-79
2023/10/12 12:02:16;;;;;;;7.03;4.78;;;;;;;25.73;34.43;95764.44;4910368;29;20210;-80
2023/10/12 12:04:41;;;;;;;11.38;5.07;;;;;;;25.25;35.02;95746.16;4914590;29;20209;-81
2023/10/12 12:07:10;;;;;;;11.35;5.05;;;;;;;24.88;35.75;95746.41;4929412;29;20206;-80
2023/10/12 12:09:39;;;;;;;10.15;5.43;;;;;;;24.93;35.69;95743.88;4929872;29;20260;-79
2023/10/12 12:12:12;;;;;;;10.32;4.53;;;;;;;24.99;35.70;95740.28;4907221;29;20189;-79
2023/10/12 12:14:46;;;;;;;8.32;4.38;;;;;;;25.19;35.05;95733.84;4918980;29;20187;-80
2023/10/12 12:17:11;;;;;;;12.85;5.03;;;;;;;24.37;35.53;95729.31;4913444;29;20289;-80
2023/10/12 12:19:38;;;;;;;11.18;5.28;;;;;;;24.48;35.74;95733.84;4930703;29;20253;-78
2023/10/12 12:22:04;;;;;;;7.38;5.45;;;;;;;24.89;36.15;95723.31;4917508;29;20288;-80
2023/10/12 12:24:29;;;;;;;8.13;4.97;;;;;;;24.68;36.24;95732.69;4921051;29;20673;-79
2023/10/12 12:26:54;;;;;;;9.68;5.00;;;;;;;24.98;36.30;95722.72;4929528;29;20217;-79
2023/10/12 12:29:27;;;;;;;7.05;4.15;;;;;;;25.03;36.49;95727.38;4923211;29;20193;-79
2023/10/12 12:31:54;;;;;;;11.10;5.05;;;;;;;24.59;36.05;95732.22;4918855;29;20190;-78
2023/10/12 12:34:38;;;;;;;10.35;4.65;;;;;;;25.05;36.05;95730.59;4929192;29;20205;-79
2023/10/12 12:37:05;;;;;;;10.30;4.95;;;;;;;24.59;37.03;95721.63;4915513;29;20230;-80
2023/10/12 12:39:33;;;;;;;6.95;4.85;;;;;;;24.90;36.79;95732.91;4934820;29;20182;-79
2023/10/12 12:41:58;;;;;;;8.68;4.93;;;;;;;24.33;37.46;95714.09;4931438;29;20208;-78
2023/10/12 12:44:23;;;;;;;12.38;5.05;;;;;;;24.45;36.92;95697.13;4933849;29;20218;-79
2023/10/12 12:46:49;;;;;;;8.80;4.80;;;;;;;24.06;37.63;95721.63;4936735;29;20232;-79
2023/10/12 12:49:15;;;;;;;9.85;5.45;;;;;;;23.94;38.00;95717.13;4936676;29;20560;-79
2023/10/12 12:51:40;;;;;;;8.27;5.25;;;;;;;24.05;38.36;95698.81;4931263;29;20190;-80
2023/10/12 12:54:06;;;;;;;14.45;4.72;;;;;;;24.00;38.81;95702.94;4925687;29;20197;-80
2023/10/12 12:56:31;;;;;;;6.93;4.82;;;;;;;24.01;38.05;95703.75;4937200;29;21168;-78
2023/10/12 12:58:56;;;;;;;7.45;5.00;;;;;;;24.11;37.60;95708.47;4917844;29;20276;-79
2023/10/12 13:01:23;;;;;;;11.60;5.07;;;;;;;24.00;38.11;95705.59;4930887;29;20206;-80
2023/10/12 13:03:52;;;;;;;12.70;4.50;;;;;;;24.14;38.39;95714.16;4927259;29;20198;-79
2023/10/12 13:06:17;;;;;;;8.90;4.95;;;;;;;24.15;37.63;95702.50;4918298;29;20206;-79
2023/10/12 13:08:43;;;;;;;8.38;4.88;;;;;;;24.35;37.77;95698.75;4900580;29;20186;-76
2023/10/12 13:11:09;;;;;;;8.60;5.03;;;;;;;24.35;37.75;95688.13;4906849;29;20183;-79
2023/10/12 13:13:35;;;;;;;7.20;5.00;;;;;;;24.03;38.19;95677.81;4918463;29;20281;-80
2023/10/12 13:16:03;;;;;;;9.82;4.82;;;;;;;24.13;37.86;95675.41;4931943;29;20205;-81
2023/10/12 13:18:30;;;;;;;9.73;4.60;;;;;;;24.10;37.77;95667.06;4910291;29;20711;-80
2023/10/12 13:20:57;;;;;;;7.38;4.40;;;;;;;23.68;38.23;95665.28;4920896;29;20255;-79
2023/10/12 13:23:23;;;;;;;9.20;4.90;;;;;;;24.18;37.91;95656.13;4908499;29;20715;-80
2023/10/12 13:25:49;;;;;;;7.10;4.25;;;;;;;24.24;37.46;95652.56;4933222;29;20197;-80
2023/10/12 13:28:14;;;;;;;7.00;4.57;;;;;;;24.26;37.35;95647.81;4924758;29;20190;-78
2023/10/12 13:30:40;;;;;;;5.47;4.45;;;;;;;23.55;38.13;95654.03;4937564;29;20194;-79
2023/10/12 13:33:11;;;;;;;11.98;4.80;;;;;;;23.62;38.11;95650.28;4918403;29;20281;-78
2023/10/12 13:35:42;;;;;;;9.88;5.35;;;;;;;23.21;38.18;95643.06;4925662;29;20193;-80